Appam, North Dakota
Current Conditions -  °F | °C
As of 1:55 AM on Monday 24 Nov 2014 (Local Time) from KD50 Reporting Station
Clear Clear  
Wind Chill: -9°   Ceiling: Unl
Heat Index:   Visibility: 10mi
Dew Point:   Wind: 7mph
Humidity: 92%   Direction: 320°NW
Pressure: 29.82"   Gusts: NA
Location:  48.59°N, 103.406°W
Report Text: KD50 240755Z AUTO 32006KT 10SM CLR M16/M17 A2982 RMK AO2
Loading
Personal Weather Stations






























Interactive Weather Map New forecast layout! Learn more

10-Day Weather Forecast

Advertisements
Track Severe Weather on mobile